Time;durP1;ratioP1;P1;durP2;ratioP2;P2;SDS_P1;SDS_P2;PMS_P1;PMS_P2;Temp;Humidity;BMP_temperature;BMP_pressure;BME280_temperature;BME280_humidity;BME280_pressure;Samples;Min_cycle;Max_cycle;Signal;HPM_P1;HPM_P2
2022/06/13 00:01:52;;;;;;;10.90;5.45;;;;;;;14.38;69.86;102040.88;4991797;28;20034;-81
2022/06/13 00:04:17;;;;;;;14.93;5.78;;;;;;;14.40;70.25;102025.19;4994270;28;20038;-82
2022/06/13 00:06:43;;;;;;;10.65;5.55;;;;;;;14.36;69.99;102031.19;4995193;28;20026;-81
2022/06/13 00:09:09;;;;;;;11.80;4.97;;;;;;;14.30;70.98;102026.66;4994857;28;20034;-81
2022/06/13 00:11:35;;;;;;;12.57;5.22;;;;;;;14.29;71.19;102032.75;4993635;28;20030;-81
2022/06/13 00:14:02;;;;;;;9.98;5.40;;;;;;;14.27;70.78;102027.44;5008014;28;20042;-82
2022/06/13 00:16:29;;;;;;;11.18;5.30;;;;;;;14.20;70.80;102022.88;5014597;28;20034;-81
2022/06/13 00:18:55;;;;;;;11.35;5.78;;;;;;;14.21;70.28;102029.03;5014275;28;20057;-81
2022/06/13 00:21:32;;;;;;;14.82;5.80;;;;;;;14.21;70.88;102023.78;5013123;28;20057;-82
2022/06/13 00:24:01;;;;;;;13.70;5.70;;;;;;;14.20;70.64;102016.78;5007057;28;20054;-81
2022/06/13 00:26:28;;;;;;;13.07;6.23;;;;;;;14.15;70.62;102010.50;4996543;28;20025;-81
2022/06/13 00:28:54;;;;;;;13.43;6.38;;;;;;;14.09;70.18;102008.59;5014260;28;20359;-81
2022/06/13 00:31:19;;;;;;;14.60;6.88;;;;;;;14.12;70.28;102018.28;5013049;28;20101;-81
2022/06/13 00:33:45;;;;;;;12.88;6.93;;;;;;;14.11;70.26;102013.88;5013993;28;20473;-81
2022/06/13 00:36:11;;;;;;;15.63;6.80;;;;;;;14.06;70.91;102013.75;5013755;28;20080;-81
2022/06/13 00:38:37;;;;;;;14.13;6.93;;;;;;;14.03;70.93;102016.28;5013385;28;20525;-81
2022/06/13 00:41:10;;;;;;;14.00;6.97;;;;;;;14.01;70.20;102016.25;5013369;28;20034;-81
2022/06/13 00:43:38;;;;;;;17.20;6.70;;;;;;;13.97;71.17;102013.50;5013650;28;20032;-81
2022/06/13 00:46:20;;;;;;;13.32;6.80;;;;;;;14.02;71.20;102004.94;5012839;28;20025;-81
2022/06/13 00:48:47;;;;;;;14.05;6.63;;;;;;;14.01;71.19;102000.53;5013907;28;20161;-81
2022/06/13 00:51:12;;;;;;;13.23;6.50;;;;;;;13.98;71.12;102000.44;5013448;28;20037;-81
2022/06/13 00:53:38;;;;;;;18.17;7.15;;;;;;;13.99;71.88;101996.97;5013780;28;20027;-81
2022/06/13 00:56:07;;;;;;;15.20;6.60;;;;;;;13.96;71.68;101998.63;4995104;28;20025;-81
2022/06/13 00:58:38;;;;;;;14.45;7.10;;;;;;;13.98;71.79;101997.81;5013685;28;20289;-81
2022/06/13 01:01:04;;;;;;;16.30;6.65;;;;;;;13.96;72.09;102012.63;5013323;28;20109;-81
2022/06/13 01:03:32;;;;;;;15.52;6.93;;;;;;;13.92;72.07;102008.13;5013515;28;20105;-81
2022/06/13 01:06:00;;;;;;;17.38;7.40;;;;;;;13.97;72.01;102000.41;5012688;28;20032;-81
2022/06/13 01:08:29;;;;;;;15.87;7.53;;;;;;;14.02;71.75;102004.94;5013422;28;20032;-81
2022/06/13 01:11:16;;;;;;;15.02;7.20;;;;;;;14.00;71.88;102001.34;5013305;28;20764;-81
2022/06/13 01:13:56;;;;;;;15.50;7.18;;;;;;;14.08;72.65;102001.59;5011871;28;20134;-81
2022/06/13 01:16:54;;;;;;;14.48;7.43;;;;;;;14.08;72.02;101996.34;5012287;28;20108;-81
2022/06/13 01:19:41;;;;;;;15.88;7.72;;;;;;;14.13;72.28;101991.22;5007951;28;20121;-81
2022/06/13 01:22:45;;;;;;;18.33;7.95;;;;;;;14.22;71.89;101995.00;5009192;28;20104;-81
2022/06/13 01:25:34;;;;;;;18.80;7.78;;;;;;;14.24;71.73;101985.44;4995285;28;20112;-81
2022/06/13 01:28:12;;;;;;;14.85;7.57;;;;;;;14.22;71.77;101994.09;5004068;28;20041;-81
2022/06/13 01:31:22;;;;;;;15.50;7.32;;;;;;;14.27;71.57;101992.50;5012976;28;20025;-81
2022/06/13 01:34:34;;;;;;;17.38;7.65;;;;;;;14.29;71.57;101996.03;4932920;29;20046;-81
2022/06/13 01:37:16;;;;;;;19.50;7.90;;;;;;;14.27;72.49;101988.13;4977343;28;20413;-81
2022/06/13 01:40:15;;;;;;;16.35;7.93;;;;;;;14.32;72.05;101980.38;5012747;28;20382;-81
2022/06/13 01:42:49;;;;;;;;;;;;;;;14.46;70.53;101983.38;5013105;28;20041;-81
2022/06/13 01:45:30;;;;;;;19.58;8.20;;;;;;;14.37;72.48;101977.91;5012571;28;19913;-81
2022/06/13 01:48:29;;;;;;;20.08;8.63;;;;;;;14.38;73.05;101982.28;4994061;28;20042;-73
2022/06/13 01:51:09;;;;;;;20.08;8.85;;;;;;;14.41;73.10;101975.41;5002718;28;20112;-73
2022/06/13 01:54:01;;;;;;;19.00;9.32;;;;;;;14.41;72.74;101975.41;5009909;28;20036;-73
2022/06/13 01:56:33;;;;;;;17.63;8.70;;;;;;;14.42;72.89;101982.41;5011275;28;20026;-73
2022/06/13 01:59:02;;;;;;;20.52;9.15;;;;;;;14.43;73.21;101984.16;5009858;28;20029;-73
2022/06/13 02:01:52;;;;;;;21.92;8.23;;;;;;;14.46;73.38;101987.75;5012474;28;20111;-73
2022/06/13 02:04:28;;;;;;;19.63;8.35;;;;;;;14.43;73.94;101997.28;5012417;28;20033;-73
2022/06/13 02:07:13;;;;;;;18.88;8.93;;;;;;;14.41;73.79;101988.50;5011350;28;20485;-73
2022/06/13 02:09:42;;;;;;;19.60;8.88;;;;;;;14.40;74.12;101985.84;5012265;28;20116;-73
2022/06/13 02:12:10;;;;;;;14.95;8.80;;;;;;;14.42;74.03;101986.75;5011959;28;20025;-73
2022/06/13 02:14:40;;;;;;;18.60;9.02;;;;;;;14.43;73.91;101986.78;5012021;28;20620;-73
2022/06/13 02:17:16;;;;;;;25.95;9.48;;;;;;;14.46;74.34;101985.13;5011335;28;20497;-81
2022/06/13 02:19:48;;;;;;;20.52;8.80;;;;;;;14.49;74.18;101999.19;5010153;28;20034;-81
2022/06/13 02:22:21;;;;;;;23.60;9.68;;;;;;;14.51;74.86;101991.34;5011914;28;20022;-81
2022/06/13 02:25:22;;;;;;;22.70;10.05;;;;;;;14.56;73.84;101995.00;5011608;28;20037;-81
2022/06/13 02:27:55;;;;;;;18.35;9.23;;;;;;;14.57;74.49;101997.66;4995305;28;20021;-81
2022/06/13 02:30:26;;;;;;;21.95;10.05;;;;;;;14.58;74.15;101983.72;5016670;28;20028;-81
2022/06/13 02:32:58;;;;;;;26.92;10.75;;;;;;;14.61;73.57;101988.13;4996381;28;20064;-81
2022/06/13 02:35:33;;;;;;;28.67;10.73;;;;;;;14.63;73.46;101978.59;5011692;28;20033;-82
2022/06/13 02:38:16;;;;;;;23.17;10.63;;;;;;;14.66;73.40;101980.41;4993292;28;20121;-80
2022/06/13 02:40:47;;;;;;;27.20;12.15;;;;;;;14.64;72.92;101975.09;5011614;28;20084;-81
2022/06/13 02:43:24;;;;;;;27.85;11.20;;;;;;;14.66;72.65;101978.69;5011369;28;20042;-81
2022/06/13 02:45:58;;;;;;;24.05;10.65;;;;;;;14.70;73.21;101977.00;5010790;28;20108;-81
2022/06/13 02:48:35;;;;;;;28.98;11.60;;;;;;;14.66;73.00;101976.06;4998845;28;20030;-81
2022/06/13 02:51:11;;;;;;;25.90;11.32;;;;;;;14.71;72.94;101973.53;5011384;28;20534;-80
2022/06/13 02:54:14;;;;;;;32.50;11.55;;;;;;;14.73;72.41;101974.44;5011428;28;20079;-80
2022/06/13 02:57:24;;;;;;;31.15;12.43;;;;;;;14.74;72.19;101969.25;5007813;28;20121;-81
2022/06/13 03:00:10;;;;;;;31.23;12.00;;;;;;;14.73;72.31;101971.81;5011239;28;20473;-82
2022/06/13 03:03:00;;;;;;;30.48;12.38;;;;;;;14.73;72.21;101972.72;5011143;28;20026;-81
2022/06/13 03:05:42;;;;;;;32.53;12.32;;;;;;;14.70;72.21;101967.41;5011107;28;20397;-81
2022/06/13 03:08:36;;;;;;;26.83;12.40;;;;;;;14.71;72.35;101963.91;5010623;28;20073;-81
2022/06/13 03:11:19;;;;;;;27.27;12.32;;;;;;;14.75;72.19;101976.25;5010885;28;20029;-81
2022/06/13 03:13:57;;;;;;;29.67;12.20;;;;;;;14.70;72.84;101972.66;5010703;28;20104;-81
2022/06/13 03:16:25;;;;;;;33.03;13.10;;;;;;;14.69;73.04;101978.75;4991454;28;20092;-81
2022/06/13 03:18:57;;;;;;;27.77;12.65;;;;;;;14.71;73.16;101977.03;5009994;28;20474;-81
2022/06/13 03:21:33;;;;;;;30.75;13.13;;;;;;;14.69;73.12;101980.50;5010840;28;20037;-81
2022/06/13 03:24:13;;;;;;;32.10;12.55;;;;;;;14.72;73.01;101975.31;4993448;28;20029;-81
2022/06/13 03:26:45;;;;;;;36.55;13.27;;;;;;;14.67;73.24;101983.09;5010206;28;20030;-82
2022/06/13 03:29:27;;;;;;;31.70;13.52;;;;;;;14.67;73.05;101976.94;5010906;28;20030;-81
2022/06/13 03:31:57;;;;;;;32.20;12.82;;;;;;;14.66;73.47;101983.91;5010941;28;20032;-81
2022/06/13 03:34:28;;;;;;;37.33;13.02;;;;;;;14.63;73.95;101978.59;5010632;28;20306;-81
2022/06/13 03:37:01;;;;;;;31.48;13.52;;;;;;;14.60;73.79;101982.00;5009121;28;20075;-80
2022/06/13 03:39:37;;;;;;;32.38;13.40;;;;;;;14.59;73.91;101990.69;5010792;28;20053;-81
2022/06/13 03:42:17;;;;;;;37.53;14.30;;;;;;;14.54;73.96;101991.44;5010606;28;20105;-81
2022/06/13 03:44:58;;;;;;;33.55;13.18;;;;;;;14.54;74.08;101991.44;5010700;28;20026;-81
2022/06/13 03:47:30;;;;;;;31.92;13.27;;;;;;;14.55;73.97;101987.97;5010020;28;20038;-81
2022/06/13 03:50:22;;;;;;;34.47;13.93;;;;;;;14.49;74.16;101993.06;5011102;28;20097;-81
2022/06/13 03:53:12;;;;;;;35.17;14.40;;;;;;;14.47;74.30;101986.88;4993514;28;20497;-81
2022/06/13 03:55:53;;;;;;;35.28;13.70;;;;;;;14.49;74.19;102000.94;4989935;28;20046;-82
2022/06/13 03:58:27;;;;;;;29.48;13.27;;;;;;;14.44;74.70;102001.69;5009947;28;20092;-81
2022/06/13 04:01:10;;;;;;;34.45;14.30;;;;;;;14.48;74.56;102002.66;5010452;28;20034;-81
2022/06/13 04:03:36;;;;;;;36.83;13.73;;;;;;;14.46;74.83;102008.72;5010337;28;20048;-81
2022/06/13 04:06:05;;;;;;;37.83;14.05;;;;;;;14.43;74.87;102005.16;4992875;28;20026;-81
2022/06/13 04:08:34;;;;;;;36.63;14.73;;;;;;;14.43;74.97;102005.16;5009633;28;20430;-81
2022/06/13 04:11:12;;;;;;;;;;;;;;;14.60;73.12;102004.72;5010877;28;20105;-81
2022/06/13 04:13:58;;;;;;;37.92;14.73;;;;;;;14.47;74.75;102007.84;5010070;28;19921;-81
2022/06/13 04:16:26;;;;;;;38.03;14.48;;;;;;;14.41;75.02;102006.88;5010438;28;20129;-81
2022/06/13 04:19:07;;;;;;;39.17;14.60;;;;;;;14.36;75.13;102012.81;5009413;28;20018;-81
2022/06/13 04:21:55;;;;;;;42.72;15.55;;;;;;;14.35;74.91;102011.94;5009202;28;20038;-81
2022/06/13 04:24:26;;;;;;;32.65;14.18;;;;;;;14.32;75.23;102016.22;5010194;28;20096;-81
2022/06/13 04:26:51;;;;;;;40.33;15.93;;;;;;;14.27;75.42;102014.34;4991522;28;20083;-81
2022/06/13 04:29:57;;;;;;;40.85;15.40;;;;;;;14.32;74.72;102011.84;5009340;28;20038;-81
2022/06/13 04:32:31;;;;;;;42.55;15.90;;;;;;;14.26;75.79;102016.94;4960336;28;20107;-81
2022/06/13 04:34:58;;;;;;;34.83;14.95;;;;;;;14.27;75.86;102024.84;5009144;28;20029;-81
2022/06/13 04:37:24;;;;;;;33.90;15.07;;;;;;;14.27;76.18;102021.34;5010108;28;20060;-81
2022/06/13 04:39:53;;;;;;;35.95;15.88;;;;;;;14.29;76.22;102027.50;5010099;28;20029;-81
2022/06/13 04:42:21;;;;;;;41.53;16.33;;;;;;;14.27;76.73;102022.22;5010391;28;20025;-81
2022/06/13 04:44:48;;;;;;;42.97;16.00;;;;;;;14.28;77.15;102025.75;5007722;28;20034;-81
2022/06/13 04:47:16;;;;;;;37.72;15.57;;;;;;;14.28;77.46;102030.97;4992667;28;20505;-81
2022/06/13 04:49:47;;;;;;;40.92;16.83;;;;;;;14.31;77.53;102030.16;5019823;28;20560;-80
2022/06/13 04:52:17;;;;;;;37.70;15.85;;;;;;;14.31;77.65;102028.44;5013472;28;20051;-81
2022/06/13 04:54:48;;;;;;;43.30;15.98;;;;;;;14.30;78.33;102024.03;5017694;28;20116;-80
2022/06/13 04:57:16;;;;;;;38.22;16.58;;;;;;;14.33;78.28;102034.59;4995594;28;20038;-81
2022/06/13 04:59:42;;;;;;;38.50;16.88;;;;;;;14.34;78.32;102036.38;4994870;28;20053;-81
2022/06/13 05:02:15;;;;;;;40.60;16.80;;;;;;;14.38;78.60;102034.72;5013280;28;20701;-81
2022/06/13 05:04:40;;;;;;;48.65;17.58;;;;;;;14.41;78.51;102037.41;4995764;28;20038;-81
2022/06/13 05:07:13;;;;;;;43.90;16.98;;;;;;;14.42;78.45;102040.13;5012412;28;20030;-81
2022/06/13 05:10:05;;;;;;;39.03;16.42;;;;;;;14.49;77.76;102040.28;5012559;28;20056;-81
2022/06/13 05:12:39;;;;;;;48.25;17.13;;;;;;;14.51;78.59;102041.19;4971824;28;20525;-81
2022/06/13 05:15:12;;;;;;;46.40;17.13;;;;;;;14.58;78.65;102045.75;4993720;28;20357;-82
2022/06/13 05:18:31;;;;;;;43.13;17.65;;;;;;;14.63;77.80;102052.06;4992722;28;20398;-82
2022/06/13 05:21:12;;;;;;;38.55;16.42;;;;;;;14.65;78.65;102052.09;4941806;29;20031;-80
2022/06/13 05:23:56;;;;;;;48.15;17.98;;;;;;;14.68;78.32;102046.91;4987732;28;20034;-81
2022/06/13 05:26:27;;;;;;;47.00;17.80;;;;;;;14.71;79.01;102060.97;4993442;28;20029;-81
2022/06/13 05:28:52;;;;;;;46.65;16.77;;;;;;;14.72;79.15;102054.03;4992163;28;20053;-81
2022/06/13 05:31:19;;;;;;;46.17;18.35;;;;;;;14.73;79.40;102058.41;4992490;28;20042;-81
2022/06/13 05:33:46;;;;;;;45.80;18.25;;;;;;;14.76;79.01;102064.63;4992451;28;20030;-82
2022/06/13 05:36:16;;;;;;;45.97;17.55;;;;;;;14.80;78.72;102067.34;4993432;28;20398;-81
2022/06/13 05:38:46;;;;;;;44.50;18.15;;;;;;;14.83;79.13;102065.69;4993284;28;20481;-81
2022/06/13 05:41:11;;;;;;;46.25;19.35;;;;;;;14.88;79.67;102064.06;4992306;28;20030;-82
2022/06/13 05:43:37;;;;;;;43.17;17.77;;;;;;;14.91;79.10;102066.75;5000930;28;20022;-82
2022/06/13 05:46:04;;;;;;;47.38;16.88;;;;;;;14.94;78.98;102074.69;4992919;28;20037;-82
2022/06/13 05:48:30;;;;;;;42.38;16.15;;;;;;;14.98;79.57;102078.31;4991430;28;20482;-81
2022/06/13 05:50:55;;;;;;;49.30;17.10;;;;;;;15.03;79.57;102076.66;4975437;28;20023;-82
2022/06/13 05:53:23;;;;;;;45.55;16.73;;;;;;;15.09;79.61;102083.81;4975370;28;20026;-82
2022/06/13 05:55:50;;;;;;;47.65;16.92;;;;;;;15.12;78.48;102084.78;4992021;28;20038;-83
2022/06/13 05:58:17;;;;;;;37.80;14.52;;;;;;;15.20;78.42;102087.59;4991727;28;20053;-82
2022/06/13 06:00:57;;;;;;;44.80;16.17;;;;;;;15.24;79.37;102091.19;4992144;28;20022;-83
2022/06/13 06:03:22;;;;;;;45.97;15.23;;;;;;;15.26;78.31;102090.34;4992076;28;20056;-82
2022/06/13 06:05:48;;;;;;;43.78;15.18;;;;;;;15.30;79.18;102091.34;4992738;28;20490;-82
2022/06/13 06:08:25;;;;;;;45.30;16.05;;;;;;;15.34;78.58;102100.16;4991797;28;20062;-83
2022/06/13 06:10:53;;;;;;;38.90;14.80;;;;;;;15.37;77.40;102101.13;4992673;28;20028;-82
2022/06/13 06:13:19;;;;;;;44.38;15.35;;;;;;;15.40;77.33;102103.84;4979951;28;20340;-82
2022/06/13 06:15:46;;;;;;;40.67;14.43;;;;;;;15.45;76.03;102112.72;4992579;28;20166;-81
2022/06/13 06:18:12;;;;;;;39.65;14.43;;;;;;;15.50;76.78;102114.53;4990378;28;20126;-82
2022/06/13 06:20:37;;;;;;;38.13;14.05;;;;;;;15.52;76.16;102119.00;4992358;28;20391;-82
2022/06/13 06:23:03;;;;;;;44.85;13.50;;;;;;;15.55;75.77;102118.19;4992494;28;20042;-83
2022/06/13 06:25:29;;;;;;;41.13;13.20;;;;;;;15.57;76.63;102116.47;4991124;28;20058;-81
2022/06/13 06:27:55;;;;;;;37.78;12.95;;;;;;;15.64;77.15;102119.28;4991311;28;20101;-82
2022/06/13 06:30:20;;;;;;;45.92;13.88;;;;;;;15.72;76.38;102122.09;4992299;28;20582;-82
2022/06/13 06:32:46;;;;;;;35.35;13.43;;;;;;;15.80;75.60;102123.19;4989163;28;20030;-83
2022/06/13 06:35:12;;;;;;;32.53;13.50;;;;;;;15.85;75.08;102119.78;4991214;28;20026;-83
2022/06/13 06:37:39;;;;;;;27.38;10.10;;;;;;;15.86;72.00;102116.28;4991122;28;20081;-82
2022/06/13 06:40:05;;;;;;;25.52;10.15;;;;;;;15.88;72.03;102117.22;4992020;28;20022;-82
2022/06/13 06:42:31;;;;;;;24.48;9.13;;;;;;;15.90;72.38;102126.00;4991970;28;20057;-81
2022/06/13 06:44:56;;;;;;;25.42;8.07;;;;;;;15.92;72.07;102137.47;4991176;28;20142;-83
2022/06/13 06:47:21;;;;;;;22.42;6.95;;;;;;;15.90;68.62;102134.81;4991881;28;20023;-81
2022/06/13 06:49:47;;;;;;;22.55;6.90;;;;;;;15.95;70.43;102140.16;4992055;28;20431;-82
2022/06/13 06:52:12;;;;;;;21.15;5.97;;;;;;;15.98;67.93;102141.09;4991634;28;20546;-83
2022/06/13 07:00:06;;;;;;;18.05;5.28;;;;;;;16.27;69.29;102147.84;4991860;28;20066;-83
2022/06/13 07:02:32;;;;;;;13.00;4.90;;;;;;;16.32;66.78;102141.84;4991361;28;20027;-83
2022/06/13 07:05:04;;;;;;;15.40;5.10;;;;;;;16.34;66.68;102149.75;4991586;28;20049;-84
2022/06/13 07:07:30;;;;;;;13.10;5.13;;;;;;;16.34;66.17;102147.13;4992034;28;20034;-82
2022/06/13 07:09:56;;;;;;;17.30;5.53;;;;;;;16.33;66.06;102150.59;4991717;28;20089;-82
2022/06/13 07:12:21;;;;;;;20.50;5.90;;;;;;;16.33;66.82;102150.59;4990502;28;20074;-82
2022/06/13 07:14:48;;;;;;;21.02;5.25;;;;;;;16.38;67.59;102146.34;5010125;28;20068;-82
2022/06/13 07:17:14;;;;;;;16.67;4.80;;;;;;;16.45;66.36;102142.06;5010952;28;20552;-82
2022/06/13 07:19:43;;;;;;;16.77;4.85;;;;;;;16.54;68.20;102146.63;5010440;28;20493;-83
2022/06/13 07:22:13;;;;;;;15.68;5.32;;;;;;;16.61;66.13;102143.25;5010084;28;20026;-83
2022/06/13 07:24:39;;;;;;;19.50;5.47;;;;;;;16.67;68.06;102146.03;5011063;28;20096;-83
2022/06/13 07:27:04;;;;;;;15.30;5.57;;;;;;;16.74;65.57;102147.91;5010966;28;20436;-82
2022/06/13 07:29:30;;;;;;;16.23;5.63;;;;;;;16.80;64.79;102155.03;5010848;28;20057;-84
2022/06/13 07:32:02;;;;;;;17.25;5.88;;;;;;;16.84;65.27;102152.50;5010111;28;20021;-83
2022/06/13 07:34:31;;;;;;;16.77;5.68;;;;;;;16.87;65.55;102156.91;4993097;28;20034;-83
2022/06/13 07:36:59;;;;;;;18.20;5.80;;;;;;;16.90;65.85;102161.41;5010819;28;20105;-84
2022/06/13 07:39:24;;;;;;;13.63;5.33;;;;;;;16.91;65.63;102163.19;5010881;28;20068;-83
2022/06/13 07:41:50;;;;;;;18.40;5.78;;;;;;;16.90;64.16;102161.41;4992110;28;20109;-83
2022/06/13 07:44:23;;;;;;;18.45;5.80;;;;;;;16.88;64.58;102163.13;5010548;28;20073;-83
2022/06/13 07:46:50;;;;;;;14.82;5.53;;;;;;;16.87;65.75;102162.19;5010919;28;20076;-83
2022/06/13 07:49:16;;;;;;;14.40;5.95;;;;;;;16.87;65.62;102159.56;5010497;28;20108;-83
2022/06/13 07:51:41;;;;;;;19.88;6.10;;;;;;;16.89;65.55;102159.63;5009824;28;20018;-83
2022/06/13 07:54:06;;;;;;;17.77;5.55;;;;;;;16.94;66.10;102163.22;5009630;28;20440;-83
2022/06/13 07:56:34;;;;;;;20.13;6.18;;;;;;;17.01;64.61;102165.13;5010526;28;20117;-83
2022/06/13 07:58:59;;;;;;;16.02;5.53;;;;;;;17.11;68.04;102176.72;5010637;28;20033;-83
2022/06/13 08:01:26;;;;;;;20.77;6.10;;;;;;;17.18;67.08;102183.88;5010407;28;20416;-83
2022/06/13 08:03:52;;;;;;;20.67;6.25;;;;;;;17.22;65.58;102188.34;5009597;28;20109;-83
2022/06/13 08:06:18;;;;;;;15.70;5.72;;;;;;;17.27;65.56;102185.78;5009504;28;20113;-83
2022/06/13 08:08:45;;;;;;;16.73;5.70;;;;;;;17.37;67.42;102195.59;5010625;28;20089;-83
2022/06/13 08:11:15;;;;;;;17.60;5.95;;;;;;;17.44;65.95;102192.22;5010345;28;20542;-83
2022/06/13 08:13:40;;;;;;;22.63;6.47;;;;;;;17.52;66.07;102193.25;4991950;28;20057;-82
2022/06/13 08:16:07;;;;;;;18.17;6.68;;;;;;;17.61;63.90;102199.50;4992796;28;20038;-83
2022/06/13 08:18:34;;;;;;;15.85;5.78;;;;;;;17.66;63.48;102200.47;5008591;28;20452;-82
2022/06/13 08:20:59;;;;;;;21.02;6.10;;;;;;;17.66;64.07;102197.84;5010255;28;20508;-82
2022/06/13 08:23:25;;;;;;;22.70;6.25;;;;;;;17.76;64.95;102204.16;5012752;28;20029;-83
2022/06/13 08:25:51;;;;;;;19.85;6.80;;;;;;;17.85;65.10;102207.78;5014313;28;20025;-83
2022/06/13 08:28:16;;;;;;;20.40;6.40;;;;;;;17.92;64.70;102198.28;4995417;28;20089;-83
2022/06/13 08:30:49;;;;;;;16.80;6.18;;;;;;;17.90;63.09;102200.88;5014093;28;20061;-83
2022/06/13 08:33:14;;;;;;;16.60;6.22;;;;;;;17.87;62.39;102203.44;5014011;28;20026;-83
2022/06/13 08:35:40;;;;;;;16.58;6.40;;;;;;;17.84;64.86;102208.69;5013914;28;20030;-83
2022/06/13 08:38:06;;;;;;;13.82;5.60;;;;;;;17.78;63.17;102208.56;4993771;28;20022;-83
2022/06/13 08:40:37;;;;;;;12.32;5.70;;;;;;;17.72;60.88;102219.03;5012982;28;20030;-83
2022/06/13 08:43:33;;;;;;;12.70;5.22;;;;;;;17.69;62.71;102219.84;5013903;28;20030;-84
2022/06/13 08:46:13;;;;;;;15.38;5.63;;;;;;;17.72;64.21;102213.75;5018507;28;20109;-83
2022/06/13 08:48:41;;;;;;;14.05;5.05;;;;;;;17.77;62.37;102217.34;5006693;28;20033;-82
2022/06/13 08:51:20;;;;;;;15.07;5.10;;;;;;;17.93;66.35;102213.25;5013675;28;20022;-82
2022/06/13 08:54:01;;;;;;;13.45;5.90;;;;;;;18.05;63.72;102217.81;5019318;28;20054;-83
2022/06/13 08:56:35;;;;;;;19.40;5.70;;;;;;;18.10;61.12;102205.56;5013365;28;20034;-85
2022/06/13 08:59:24;;;;;;;18.98;5.55;;;;;;;18.16;61.61;102217.94;5012239;28;20088;-84
2022/06/13 09:01:52;;;;;;;;;;;;;;;18.22;63.50;102223.34;5007887;28;20040;-84
2022/06/13 09:04:33;;;;;;;12.40;4.93;;;;;;;18.29;62.21;102216.38;5013549;28;19916;-84
2022/06/13 09:07:08;;;;;;;20.02;9.10;;;;;;;18.29;60.73;102219.88;5009897;28;20292;-84
2022/06/13 09:10:09;;;;;;;21.92;10.18;;;;;;;18.29;61.21;102226.91;5012975;28;20026;-83
2022/06/13 09:12:55;;;;;;;14.65;5.97;;;;;;;18.21;60.25;102230.34;4969185;28;20265;-86
2022/06/13 09:15:40;;;;;;;18.70;5.10;;;;;;;18.14;59.15;102233.75;5010744;28;20030;-84
2022/06/13 09:18:19;;;;;;;15.95;5.30;;;;;;;18.09;60.78;102246.00;5011330;28;20014;-86
2022/06/13 09:20:56;;;;;;;11.43;4.53;;;;;;;18.05;61.44;102249.47;5012264;28;20544;-84
2022/06/13 09:23:32;;;;;;;15.10;4.30;;;;;;;18.04;61.31;102255.59;5012240;28;20414;-83
2022/06/13 09:26:11;;;;;;;12.77;4.43;;;;;;;18.05;62.62;102254.72;5010964;28;20115;-83
2022/06/13 09:28:59;;;;;;;13.57;4.28;;;;;;;18.11;60.61;102256.56;5008831;28;20022;-86
2022/06/13 09:31:36;;;;;;;11.80;4.05;;;;;;;18.15;62.12;102258.41;5016786;28;20511;-86
2022/06/13 09:34:10;;;;;;;13.07;4.28;;;;;;;18.19;62.54;102253.19;5010188;28;20457;-83
2022/06/13 09:36:39;;;;;;;11.07;4.45;;;;;;;18.27;62.70;102260.31;5017631;28;20389;-82
2022/06/13 09:39:11;;;;;;;11.07;4.30;;;;;;;18.28;61.42;102247.16;4995143;28;20600;-83
2022/06/13 09:41:51;;;;;;;13.65;4.57;;;;;;;18.33;63.44;102256.00;5012022;28;20026;-83
2022/06/13 09:44:50;;;;;;;13.43;4.32;;;;;;;18.34;62.80;102257.78;5012653;28;20026;-82
2022/06/13 09:47:30;;;;;;;10.75;4.20;;;;;;;18.36;63.12;102271.88;5012535;28;20034;-83
2022/06/13 09:50:13;;;;;;;12.32;4.25;;;;;;;18.34;60.51;102264.81;5012681;28;20028;-83
2022/06/13 09:52:57;;;;;;;11.10;4.10;;;;;;;18.33;60.27;102269.19;5011477;28;20517;-83
2022/06/13 09:55:45;;;;;;;9.52;3.85;;;;;;;18.33;58.99;102270.97;5012652;28;20034;-82
2022/06/13 09:59:14;;;;;;;16.20;4.28;;;;;;;18.38;61.65;102264.00;5012506;28;20034;-83
2022/06/13 10:02:00;;;;;;;12.63;4.78;;;;;;;18.36;60.05;102273.63;4915347;29;20131;-83
2022/06/13 10:04:43;;;;;;;12.77;4.10;;;;;;;18.36;58.43;102266.59;4913837;29;20035;-83
2022/06/13 10:07:26;;;;;;;10.32;3.60;;;;;;;18.35;59.21;102271.84;4987001;28;20029;-83
2022/06/13 10:10:33;;;;;;;10.18;3.95;;;;;;;18.28;59.00;102268.25;5012228;28;20029;-84
2022/06/13 10:13:23;;;;;;;13.35;4.15;;;;;;;18.25;59.92;102277.00;4932000;29;20048;-82
2022/06/13 10:15:57;;;;;;;16.15;4.20;;;;;;;18.30;61.08;102271.81;4964490;28;20413;-84
2022/06/13 10:18:45;;;;;;;8.82;3.20;;;;;;;18.35;59.45;102285.97;5011223;28;20030;-86
2022/06/13 10:21:17;;;;;;;8.85;3.33;;;;;;;18.36;58.94;102282.44;5010125;28;20318;-87
2022/06/13 10:24:09;;;;;;;9.95;3.78;;;;;;;18.45;60.21;102275.53;5009628;28;20018;-88
2022/06/13 10:26:54;;;;;;;9.57;3.75;;;;;;;18.54;59.51;102276.53;4993961;28;20409;-87
2022/06/13 10:29:42;;;;;;;14.07;5.63;;;;;;;18.55;57.42;102280.06;4970708;28;20057;-87
2022/06/13 10:32:18;;;;;;;11.10;4.70;;;;;;;18.46;55.87;102283.47;4991925;28;20103;-87
2022/06/13 10:35:02;;;;;;;9.93;4.43;;;;;;;18.42;58.63;102281.63;5011340;28;20057;-86
2022/06/13 10:37:43;;;;;;;15.88;6.63;;;;;;;18.37;57.15;102285.97;5011818;28;20076;-84
2022/06/13 10:40:10;;;;;;;12.57;6.43;;;;;;;18.28;56.95;102291.09;4994162;28;20034;-84
2022/06/13 10:42:36;;;;;;;9.73;4.22;;;;;;;18.31;57.76;102296.47;5010954;28;20069;-83
2022/06/13 10:45:08;;;;;;;12.45;3.95;;;;;;;18.37;59.27;102289.50;5011738;28;20057;-83
2022/06/13 10:47:49;;;;;;;11.00;4.47;;;;;;;18.48;60.35;102299.31;5011496;28;20109;-83
2022/06/13 10:50:39;;;;;;;10.55;4.07;;;;;;;18.62;60.26;102286.31;5011691;28;20022;-83
2022/06/13 10:53:12;;;;;;;9.43;3.88;;;;;;;18.75;62.16;102285.59;4993207;28;20038;-83
2022/06/13 10:55:42;;;;;;;7.35;3.70;;;;;;;18.87;59.76;102282.25;5010624;28;20120;-84
2022/06/13 10:58:17;;;;;;;14.65;4.93;;;;;;;19.04;59.90;102283.34;4993803;28;20030;-84
2022/06/13 11:01:03;;;;;;;9.70;3.90;;;;;;;19.18;59.87;102280.88;5011358;28;20026;-87
2022/06/13 11:03:28;;;;;;;11.68;4.18;;;;;;;19.23;56.25;102284.47;5010078;28;20121;-84
2022/06/13 11:06:01;;;;;;;9.93;4.20;;;;;;;19.20;57.66;102283.53;5013982;28;20057;-87
2022/06/13 11:08:27;;;;;;;11.48;3.90;;;;;;;19.14;55.88;102286.09;4995346;28;20236;-87
2022/06/13 11:10:55;;;;;;;9.25;4.20;;;;;;;19.03;55.21;102281.59;4995024;28;20370;-86
2022/06/13 11:13:30;;;;;;;9.90;3.45;;;;;;;18.94;56.53;102289.38;4995160;28;20102;-86
2022/06/13 11:24:52;;;;;;;9.73;4.63;;;;;;;19.35;54.61;102282.78;5011097;28;20118;-83
2022/06/13 11:27:40;;;;;;;9.57;5.18;;;;;;;19.42;52.61;102271.41;5004451;28;20050;-83
2022/06/13 11:30:29;;;;;;;12.52;4.28;;;;;;;19.58;56.42;102281.28;5010465;28;20026;-83
2022/06/13 11:32:59;;;;;;;10.82;4.50;;;;;;;19.57;51.57;102284.78;5019100;28;20037;-84
2022/06/13 11:35:54;;;;;;;9.52;5.47;;;;;;;19.46;52.30;102289.97;5011430;28;20129;-84
2022/06/13 11:38:33;;;;;;;11.50;5.60;;;;;;;19.33;51.44;102284.53;5005515;28;20045;-84
2022/06/13 11:41:14;;;;;;;12.77;4.95;;;;;;;19.33;54.37;102289.84;4996192;28;20018;-83
2022/06/13 11:43:58;;;;;;;8.68;5.03;;;;;;;19.26;53.73;102288.88;5006919;28;20489;-83
2022/06/13 11:46:27;;;;;;;8.35;4.68;;;;;;;19.20;53.45;102281.75;5011203;28;20448;-84
2022/06/13 11:48:54;;;;;;;9.27;4.40;;;;;;;19.15;52.97;102291.41;5009699;28;20493;-83
2022/06/13 11:51:24;;;;;;;9.40;4.13;;;;;;;19.11;53.73;102284.31;4992726;28;20504;-84
2022/06/13 11:53:52;;;;;;;9.05;4.20;;;;;;;19.21;56.27;102286.19;5010609;28;20033;-84
2022/06/13 11:56:24;;;;;;;8.55;3.67;;;;;;;19.34;57.52;102283.69;5010721;28;20057;-84
2022/06/13 11:58:52;;;;;;;8.88;3.67;;;;;;;19.49;58.53;102277.66;5009302;28;20041;-84
2022/06/13 12:01:25;;;;;;;11.20;4.20;;;;;;;19.58;56.51;102278.63;5010473;28;20401;-84
2022/06/13 12:04:18;;;;;;;6.45;4.28;;;;;;;19.68;55.87;102289.28;4992859;28;20076;-86
2022/06/13 12:06:57;;;;;;;7.22;4.00;;;;;;;19.71;54.54;102292.84;5007503;28;20121;-84